Time;durP1;ratioP1;P1;durP2;ratioP2;P2;SDS_P1;SDS_P2;PMS_P1;PMS_P2;Temp;Humidity;BMP_temperature;BMP_pressure;BME280_temperature;BME280_humidity;BME280_pressure;Samples;Min_cycle;Max_cycle;Signal;HPM_P1;HPM_P2
2023/02/16 00:00:49;;;;;;;23.85;13.50;;;;;;;0.25;69.98;100824.81;6201793;22;20372;-89
2023/02/16 00:03:17;;;;;;;25.42;13.52;;;;;;;0.10;70.54;100816.66;6201249;22;20003;-88
2023/02/16 00:05:42;;;;;;;24.27;13.40;;;;;;;0.28;70.31;100820.97;6201428;22;20338;-89
2023/02/16 00:08:08;;;;;;;26.63;14.63;;;;;;;0.12;70.25;100801.44;6201753;22;19995;-88
2023/02/16 00:10:34;;;;;;;26.33;13.25;;;;;;;0.15;70.12;100816.19;6200964;22;20004;-89
2023/02/16 00:15:44;;;;;;;23.92;13.05;;;;;;;0.09;70.61;100817.66;6234552;22;20010;-89
2023/02/16 00:18:17;;;;;;;24.45;13.20;;;;;;;0.09;70.13;100816.84;6225805;22;20000;-88
2023/02/16 00:20:47;;;;;;;27.38;14.05;;;;;;;0.24;70.59;100827.59;6201604;22;19999;-87
2023/02/16 00:23:12;;;;;;;20.33;12.30;;;;;;;0.16;70.08;100812.53;6200587;22;20003;-87
2023/02/16 00:25:37;;;;;;;21.83;11.75;;;;;;;-0.07;70.53;100805.22;6226520;22;20007;-88
2023/02/16 00:28:04;;;;;;;28.65;13.10;;;;;;;-0.06;70.77;100808.72;6226931;22;20006;-88
2023/02/16 00:30:30;;;;;;;22.27;12.70;;;;;;;0.09;70.31;100830.09;6200763;22;19996;-88
2023/02/16 00:32:55;;;;;;;23.42;12.77;;;;;;;0.04;70.58;100821.78;6225514;22;20006;-88
2023/02/16 00:35:23;;;;;;;25.88;13.02;;;;;;;-0.10;70.51;100813.50;6225732;22;20007;-89
2023/02/16 00:37:49;;;;;;;23.35;12.40;;;;;;;-0.06;70.74;100806.88;6251773;22;19996;-88
2023/02/16 00:40:15;;;;;;;26.10;13.60;;;;;;;-0.04;70.43;100810.22;6200558;22;20085;-88
2023/02/16 00:42:44;;;;;;;21.67;13.18;;;;;;;-0.07;70.68;100807.88;6200204;22;20090;-88
2023/02/16 00:45:19;;;;;;;23.30;13.18;;;;;;;-0.25;70.74;100800.09;6226718;22;20056;-88
2023/02/16 00:47:45;;;;;;;26.52;12.77;;;;;;;-0.32;70.87;100801.69;6250575;22;20373;-88
2023/02/16 00:50:32;;;;;;;22.65;13.25;;;;;;;-0.22;71.17;100820.09;6226240;22;20019;-88
2023/02/16 00:52:58;;;;;;;20.77;12.88;;;;;;;-0.39;71.16;100805.16;6225918;22;20417;-88
2023/02/16 00:55:32;;;;;;;25.40;12.65;;;;;;;-0.40;71.34;100801.69;6225914;22;19999;-88
2023/02/16 00:58:16;;;;;;;26.95;12.88;;;;;;;-0.43;71.66;100824.00;6202653;22;19999;-87
2023/02/16 01:00:50;;;;;;;18.40;12.32;;;;;;;-0.48;71.60;100799.88;6250524;22;20094;-89
2023/02/16 01:03:17;;;;;;;27.70;13.60;;;;;;;-0.50;71.78;100790.41;6200438;22;20085;-89
2023/02/16 01:05:43;;;;;;;23.30;13.77;;;;;;;-0.46;72.06;100786.44;6226934;22;20075;-89
2023/02/16 01:13:24;;;;;;;26.35;14.65;;;;;;;-0.46;72.14;100781.16;6226749;22;20004;-88
2023/02/16 01:15:49;;;;;;;28.73;14.75;;;;;;;-0.39;71.36;100791.91;6225883;22;20007;-89
2023/02/16 01:18:18;;;;;;;22.60;12.85;;;;;;;-0.35;71.66;100785.31;6225660;22;20000;-89
2023/02/16 01:20:44;;;;;;;25.42;15.05;;;;;;;-0.45;71.76;100770.41;6226333;22;20083;-88
2023/02/16 01:23:10;;;;;;;31.35;14.88;;;;;;;-0.41;71.23;100768.28;6199652;22;20057;-88
2023/02/16 01:25:35;;;;;;;23.65;14.43;;;;;;;-0.49;71.61;100773.56;6200957;22;20065;-89
2023/02/16 01:28:01;;;;;;;34.58;15.32;;;;;;;-0.43;71.94;100786.97;6200695;22;20441;-89
2023/02/16 01:30:26;;;;;;;27.17;13.60;;;;;;;-0.53;71.62;100775.69;6225714;22;19991;-88
2023/02/16 01:32:55;;;;;;;24.80;14.57;;;;;;;-0.34;71.35;100779.03;6250298;22;19995;-89
2023/02/16 01:35:29;;;;;;;27.60;13.93;;;;;;;-0.24;70.43;100767.31;6251227;22;19999;-89
2023/02/16 01:37:55;;;;;;;24.48;13.55;;;;;;;-0.40;71.00;100762.00;6201560;22;20007;-89
2023/02/16 01:40:23;;;;;;;23.33;12.95;;;;;;;-0.38;71.73;100789.13;6226219;22;19999;-88
2023/02/16 01:42:53;;;;;;;23.50;14.18;;;;;;;-0.43;71.11;100784.31;6276909;22;19996;-88
2023/02/16 01:45:34;;;;;;;28.13;13.77;;;;;;;-0.57;71.49;100774.34;6199744;22;20000;-88
2023/02/16 01:48:04;;;;;;;22.20;13.50;;;;;;;-0.46;71.49;100767.94;6226148;22;20027;-88
2023/02/16 01:50:42;;;;;;;25.40;14.25;;;;;;;-0.31;70.96;100768.13;6225924;22;19996;-88
2023/02/16 01:53:22;;;;;;;27.15;14.05;;;;;;;-0.30;70.30;100780.38;6225449;22;20003;-88
2023/02/16 01:55:49;;;;;;;22.42;13.27;;;;;;;-0.11;70.40;100788.00;6225398;22;20004;-88
2023/02/16 01:58:24;;;;;;;27.80;13.52;;;;;;;-0.33;70.62;100781.53;6200474;22;20063;-88
2023/02/16 02:00:55;;;;;;;24.67;13.75;;;;;;;-0.29;70.48;100784.66;6225691;22;20007;-88
2023/02/16 02:06:10;;;;;;;25.80;12.63;;;;;;;-0.49;70.26;100770.91;6255665;22;20368;-88
2023/02/16 02:08:42;;;;;;;26.98;14.32;;;;;;;-0.63;70.46;100762.59;6200056;22;20002;-88
2023/02/16 02:11:11;;;;;;;31.38;14.55;;;;;;;-0.60;71.05;100787.91;6200147;22;20082;-88
2023/02/16 02:13:56;;;;;;;24.15;15.23;;;;;;;-0.64;70.75;100771.53;6225290;22;19999;-88
2023/02/16 02:16:22;;;;;;;19.33;12.38;;;;;;;-0.72;70.87;100774.16;6225180;22;19999;-88
2023/02/16 02:18:48;;;;;;;30.95;14.50;;;;;;;-0.69;70.52;100784.38;6224971;22;19995;-88
2023/02/16 02:24:22;;;;;;;33.20;14.68;;;;;;;-0.72;70.93;100795.31;6277146;22;20353;-88
2023/02/16 02:26:54;;;;;;;26.50;14.77;;;;;;;-0.96;71.29;100759.00;6276985;22;20389;-88
2023/02/16 02:29:54;;;;;;;26.05;14.93;;;;;;;-0.87;71.28;100796.88;6250967;22;20006;-88
2023/02/16 02:32:35;;;;;;;31.33;16.40;;;;;;;-0.88;71.89;100798.69;6228445;22;20027;-88
2023/02/16 02:35:12;;;;;;;34.58;17.33;;;;;;;-0.85;72.02;100795.75;6225113;22;20082;-88
2023/02/16 02:38:01;;;;;;;30.70;17.85;;;;;;;-0.96;72.39;100781.97;6250694;22;20000;-88
2023/02/16 02:40:32;;;;;;;32.58;17.08;;;;;;;-0.79;72.07;100790.81;6229584;22;19999;-88
2023/02/16 02:43:10;;;;;;;31.50;16.85;;;;;;;-0.79;72.54;100796.91;6277018;22;19999;-88
2023/02/16 02:45:42;;;;;;;29.20;16.38;;;;;;;-0.95;72.40;100765.97;6224366;22;20003;-88
2023/02/16 02:48:07;;;;;;;28.83;16.40;;;;;;;-0.86;71.89;100770.28;6224979;22;20019;-88
2023/02/16 02:53:28;;;;;;;22.05;14.05;;;;;;;-0.66;71.42;100802.59;6254432;22;20061;-88
2023/02/16 03:01:21;;;;;;;25.27;14.90;;;;;;;-0.76;71.76;100779.94;6232591;22;20015;-88
2023/02/16 03:03:49;;;;;;;27.15;14.27;;;;;;;-0.82;71.69;100781.38;6249464;22;20373;-89
2023/02/16 03:06:35;;;;;;;23.85;14.30;;;;;;;-0.95;71.73;100770.44;6199843;22;20026;-89
2023/02/16 03:09:10;;;;;;;24.77;13.65;;;;;;;-0.87;71.58;100787.16;6225532;22;20500;-88
2023/02/16 03:14:30;;;;;;;25.67;15.00;;;;;;;-1.01;72.14;100787.75;6232920;22;20007;-88
2023/02/16 03:31:09;;;;;;;25.13;15.88;;;;;;;-0.94;71.61;100806.44;6233030;22;20006;-89
2023/02/16 03:33:35;;;;;;;29.58;14.48;;;;;;;-0.75;71.08;100805.38;6199973;22;20006;-88
2023/02/16 03:36:00;;;;;;;31.10;15.90;;;;;;;-0.86;71.25;100796.72;6199084;22;20003;-89
2023/02/16 03:38:26;;;;;;;23.98;12.82;;;;;;;-1.05;71.48;100792.50;6224154;22;20007;-88
2023/02/16 03:40:51;;;;;;;25.30;13.20;;;;;;;-1.13;71.79;100775.78;6199544;22;20008;-88
2023/02/16 03:43:17;;;;;;;28.83;14.52;;;;;;;-1.06;71.40;100790.00;6199080;22;20000;-88
2023/02/16 03:45:42;;;;;;;23.10;12.90;;;;;;;-0.91;70.39;100792.91;6224177;22;20003;-88
2023/02/16 03:48:08;;;;;;;21.88;12.48;;;;;;;-1.02;70.89;100779.00;6224064;22;20030;-88
2023/02/16 03:50:33;;;;;;;27.15;13.35;;;;;;;-1.03;70.76;100785.25;6199027;22;20083;-88
2023/02/16 03:53:08;;;;;;;35.47;14.50;;;;;;;-0.92;70.54;100784.13;6224408;22;20007;-88
2023/02/16 03:55:40;;;;;;;27.33;13.75;;;;;;;-0.71;70.44;100807.53;6202783;22;19991;-88
2023/02/16 03:58:06;;;;;;;;;;;;;;;-0.84;71.20;100810.63;6224446;22;20031;-88
2023/02/16 04:00:32;;;;;;;25.48;14.10;;;;;;;-1.09;71.29;100777.94;6224588;22;19914;-88
2023/02/16 04:02:58;;;;;;;24.65;14.10;;;;;;;-1.03;71.23;100787.06;6199150;22;20074;-88
2023/02/16 04:05:23;;;;;;;23.60;13.68;;;;;;;-0.99;71.43;100798.16;6250815;22;20073;-88
2023/02/16 04:07:49;;;;;;;25.65;12.52;;;;;;;-1.00;72.05;100778.81;6223818;22;19995;-88
2023/02/16 04:10:15;;;;;;;31.98;13.18;;;;;;;-1.02;71.01;100784.28;6224083;22;20418;-88
2023/02/16 04:12:40;;;;;;;31.75;15.20;;;;;;;-1.16;71.12;100790.16;6224164;22;20038;-88
2023/02/16 04:15:17;;;;;;;27.60;15.77;;;;;;;-1.17;71.54;100788.47;6198429;22;20319;-88
2023/02/16 04:17:43;;;;;;;28.98;13.48;;;;;;;-1.20;71.07;100777.38;6200942;22;20010;-88
2023/02/16 04:20:10;;;;;;;25.75;14.05;;;;;;;-1.18;71.14;100788.63;6198435;22;20007;-89
2023/02/16 04:22:35;;;;;;;25.60;12.98;;;;;;;-1.17;70.58;100801.69;6199062;22;19996;-89
2023/02/16 04:25:01;;;;;;;24.70;13.60;;;;;;;-1.20;70.78;100790.59;6224649;22;20061;-89
2023/02/16 04:27:26;;;;;;;23.73;13.02;;;;;;;-1.19;71.02;100792.28;6198992;22;20000;-91
2023/02/16 04:29:52;;;;;;;24.85;13.32;;;;;;;-1.26;70.51;100771.75;6201223;22;20413;-88
2023/02/16 04:32:20;;;;;;;23.15;13.90;;;;;;;-1.36;70.83;100770.22;6200946;22;19999;-87
2023/02/16 04:34:45;;;;;;;24.98;13.65;;;;;;;-1.15;70.48;100775.94;6225565;22;19999;-88
2023/02/16 04:37:11;;;;;;;24.08;14.07;;;;;;;-1.15;70.90;100790.97;6225667;22;20532;-88
2023/02/16 04:39:36;;;;;;;29.27;15.07;;;;;;;-1.12;70.38;100770.34;6225963;22;20057;-88
2023/02/16 04:42:05;;;;;;;35.65;20.20;;;;;;;-1.21;70.82;100763.34;6201113;22;20029;-89
2023/02/16 04:44:30;;;;;;;27.33;15.70;;;;;;;-1.07;70.62;100783.91;6200507;22;20026;-88
2023/02/16 04:46:58;;;;;;;28.00;15.95;;;;;;;-1.03;70.03;100773.84;6199582;22;19999;-88
2023/02/16 04:49:23;;;;;;;25.17;15.35;;;;;;;-0.94;70.28;100782.66;6199800;22;20256;-88
2023/02/16 04:51:49;;;;;;;29.08;15.38;;;;;;;-0.92;70.57;100791.25;6250287;22;19999;-88
2023/02/16 04:54:15;;;;;;;30.63;15.98;;;;;;;-0.95;70.02;100765.16;6200018;22;20418;-87
2023/02/16 04:56:43;;;;;;;34.47;16.65;;;;;;;-0.86;70.50;100782.69;6224844;22;20000;-87
2023/02/16 04:59:09;;;;;;;33.22;15.75;;;;;;;-0.86;70.77;100783.50;6200297;22;20681;-87
2023/02/16 05:01:34;;;;;;;28.52;14.80;;;;;;;-0.92;70.02;100775.38;6200877;22;20004;-88
2023/02/16 05:04:00;;;;;;;23.63;14.23;;;;;;;-0.78;69.91;100792.47;6250242;22;20000;-88
2023/02/16 05:06:25;;;;;;;24.25;14.98;;;;;;;-0.71;70.19;100809.34;6225088;22;19992;-88
2023/02/16 05:08:50;;;;;;;24.35;14.57;;;;;;;-0.87;69.77;100783.66;6225987;22;19999;-89
2023/02/16 05:16:44;;;;;;;27.52;15.43;;;;;;;-1.20;69.22;100790.59;6233168;22;20080;-86
2023/02/16 05:19:10;;;;;;;23.25;12.90;;;;;;;-1.28;69.88;100791.41;6224811;22;19996;-87
2023/02/16 05:21:35;;;;;;;23.23;13.70;;;;;;;-1.28;69.54;100794.03;6200234;22;20003;-88
2023/02/16 05:24:02;;;;;;;31.40;15.50;;;;;;;-1.22;69.65;100796.88;6200798;22;20086;-88
2023/02/16 05:26:28;;;;;;;27.08;13.38;;;;;;;-1.20;69.54;100799.38;6225437;22;20010;-88
2023/02/16 05:28:53;;;;;;;26.35;14.32;;;;;;;-1.30;69.70;100783.63;6200004;22;20004;-88
2023/02/16 05:31:19;;;;;;;22.85;13.25;;;;;;;-1.34;70.15;100784.91;6200980;22;20098;-88
2023/02/16 05:33:44;;;;;;;25.33;14.20;;;;;;;-1.18;70.62;100812.41;6224946;22;20000;-88
2023/02/16 05:36:24;;;;;;;23.38;13.82;;;;;;;-1.19;70.05;100801.03;6201147;22;20057;-88
2023/02/16 05:38:50;;;;;;;25.52;13.95;;;;;;;-1.24;70.60;100803.31;6225992;22;20074;-88
2023/02/16 05:41:22;;;;;;;34.05;16.88;;;;;;;-1.24;70.64;100801.50;6198747;22;20034;-89
2023/02/16 05:43:57;;;;;;;;;;;;;;;-0.92;69.88;100828.25;6229339;22;20026;-89
2023/02/16 05:46:23;;;;;;;23.08;14.07;;;;;;;-1.10;69.87;100805.38;6253528;22;19914;-88
2023/02/16 05:48:49;;;;;;;22.90;13.63;;;;;;;-0.90;70.36;100819.19;6175126;23;20443;-87
2023/02/16 05:51:14;;;;;;;28.23;16.65;;;;;;;-1.07;69.87;100807.69;6219850;23;20010;-87
2023/02/16 05:53:40;;;;;;;28.67;14.00;;;;;;;-1.08;69.67;100805.19;6170645;23;20000;-87
2023/02/16 05:56:05;;;;;;;26.75;15.60;;;;;;;-1.11;69.70;100797.59;6220635;23;20000;-88
2023/02/16 05:58:31;;;;;;;27.50;15.65;;;;;;;-0.90;69.48;100815.72;6196177;23;19999;-89
2023/02/16 06:00:57;;;;;;;27.73;16.05;;;;;;;-0.75;69.03;100826.53;6170344;23;20001;-88
2023/02/16 06:03:23;;;;;;;27.60;14.85;;;;;;;-0.89;68.93;100797.06;6194629;23;20007;-88
2023/02/16 06:05:53;;;;;;;28.30;15.80;;;;;;;-0.85;69.07;100801.03;6194567;23;19996;-87
2023/02/16 06:08:21;;;;;;;34.03;16.17;;;;;;;-0.48;68.67;100836.06;6170221;23;20002;-87
2023/02/16 06:10:56;;;;;;;26.75;15.73;;;;;;;-0.73;69.24;100808.69;6194681;23;19999;-90
2023/02/16 06:13:21;;;;;;;28.75;15.48;;;;;;;-0.61;69.11;100824.09;6172092;23;20008;-89
2023/02/16 06:15:49;;;;;;;31.17;18.52;;;;;;;-0.64;69.44;100802.44;6171446;23;20000;-87
2023/02/16 06:18:14;;;;;;;30.77;18.00;;;;;;;-0.72;69.61;100821.75;6196241;23;20000;-88
2023/02/16 06:20:40;;;;;;;32.53;17.88;;;;;;;-0.80;69.71;100807.69;6194560;23;20004;-90
2023/02/16 06:23:06;;;;;;;31.15;17.90;;;;;;;-0.66;69.01;100818.47;6195154;23;20072;-87
2023/02/16 06:25:31;;;;;;;30.00;15.65;;;;;;;-0.50;69.22;100827.44;6195218;23;20007;-86
2023/02/16 06:27:57;;;;;;;29.85;15.98;;;;;;;-0.32;69.31;100822.06;6195828;23;20003;-87
2023/02/16 06:30:23;;;;;;;33.08;16.48;;;;;;;-0.29;68.63;100817.28;6194099;23;19996;-88
2023/02/16 06:32:48;;;;;;;35.78;19.13;;;;;;;-0.23;68.28;100827.22;6169165;23;20027;-89
2023/02/16 06:35:14;;;;;;;35.97;18.60;;;;;;;-0.30;68.76;100823.53;6170520;23;20012;-89
2023/02/16 06:37:40;;;;;;;38.20;19.88;;;;;;;0.00;68.33;100834.53;6168961;23;20000;-92
2023/02/16 06:40:14;;;;;;;31.48;18.80;;;;;;;0.32;68.16;100859.41;6169631;23;20076;-92
2023/02/16 06:42:41;;;;;;;33.80;19.55;;;;;;;0.21;67.99;100831.41;6196763;23;20003;-89
2023/02/16 06:45:07;;;;;;;35.17;18.80;;;;;;;0.43;67.21;100834.38;6170715;23;20102;-90
2023/02/16 06:47:36;;;;;;;31.88;17.38;;;;;;;0.58;67.23;100843.31;6194701;23;20089;-88
2023/02/16 06:50:02;;;;;;;46.03;20.58;;;;;;;0.40;67.99;100820.47;6194811;23;20000;-90
2023/02/16 06:52:28;;;;;;;36.85;19.33;;;;;;;0.54;67.73;100834.91;6194668;23;19996;-89
2023/02/16 06:54:53;;;;;;;30.33;16.48;;;;;;;0.71;67.23;100851.59;6194365;23;20007;-88
2023/02/16 06:57:19;;;;;;;34.45;17.40;;;;;;;0.73;67.87;100840.84;6245759;23;19996;-90
2023/02/16 06:59:44;;;;;;;44.50;22.55;;;;;;;0.88;67.36;100840.97;6193231;23;19996;-88
2023/02/16 07:02:10;;;;;;;38.28;19.92;;;;;;;1.24;66.70;100845.84;6194037;23;20003;-87
2023/02/16 07:04:35;;;;;;;28.05;17.30;;;;;;;1.50;65.21;100854.38;6219182;23;20007;-88
2023/02/16 07:07:01;;;;;;;24.27;15.23;;;;;;;1.72;64.92;100862.56;6168087;23;20015;-87
2023/02/16 07:09:50;;;;;;;30.20;14.55;;;;;;;1.85;63.85;100864.66;6221643;23;20006;-87
2023/02/16 07:12:45;;;;;;;92.70;24.02;;;;;;;2.00;64.12;100845.16;6154469;23;20000;-87
2023/02/16 07:15:29;;;;;;;44.95;22.75;;;;;;;2.27;64.08;100853.63;6215395;23;20427;-87
2023/02/16 07:17:54;;;;;;;38.78;19.20;;;;;;;2.12;62.81;100805.72;6192614;23;20000;-87
2023/02/16 07:20:26;;;;;;;38.60;16.00;;;;;;;2.43;62.96;100845.53;6217573;23;20010;-88
2023/02/16 07:22:52;;;;;;;30.42;16.33;;;;;;;2.62;62.91;100844.19;6217473;23;20006;-88
2023/02/16 07:25:39;;;;;;;28.75;16.08;;;;;;;2.47;62.02;100818.56;6193846;23;20024;-88
2023/02/16 07:49:12;;;;;;;29.77;16.08;;;;;;;2.80;62.68;100795.16;6266445;22;20047;-95
2023/02/16 07:55:30;;;;;;;30.57;16.20;;;;;;;3.12;63.15;100823.25;6263628;22;20047;-94
2023/02/16 07:57:58;;;;;;;26.33;16.58;;;;;;;3.11;62.27;100796.81;6219320;23;20493;-91
2023/02/16 08:00:25;;;;;;;29.55;16.05;;;;;;;3.22;61.88;100778.56;6219658;23;20000;-90
2023/02/16 08:02:50;;;;;;;32.17;18.23;;;;;;;3.45;61.66;100785.59;6190823;23;20004;-89
2023/02/16 08:05:16;;;;;;;34.88;19.67;;;;;;;3.81;60.87;100803.41;6194829;23;19996;-88
2023/02/16 08:07:42;;;;;;;25.63;16.48;;;;;;;3.71;60.56;100768.25;6194950;23;20004;-88
2023/02/16 08:10:09;;;;;;;37.95;20.65;;;;;;;3.99;60.23;100787.81;6168518;23;20007;-89
2023/02/16 08:12:36;;;;;;;33.42;17.70;;;;;;;4.21;59.82;100785.13;6194952;23;19996;-89
2023/02/16 08:15:04;;;;;;;27.83;16.60;;;;;;;4.37;59.52;100784.84;6168752;23;20015;-89
2023/02/16 08:17:29;;;;;;;28.52;15.43;;;;;;;4.41;59.60;100772.78;6192524;23;20003;-89
2023/02/16 08:19:58;;;;;;;35.35;16.58;;;;;;;4.64;59.10;100807.22;6170773;23;19996;-89
2023/02/16 08:22:23;;;;;;;30.88;16.80;;;;;;;4.61;58.73;100775.63;6194642;23;20028;-90
2023/02/16 08:24:50;;;;;;;34.00;17.83;;;;;;;4.77;59.00;100781.66;6170070;23;20000;-90
2023/02/16 08:27:15;;;;;;;27.42;15.27;;;;;;;5.04;59.13;100795.97;6197702;23;20011;-90
2023/02/16 08:29:42;;;;;;;43.92;25.95;;;;;;;5.15;57.97;100784.75;6181250;23;20004;-93
2023/02/16 08:32:15;;;;;;;30.95;16.13;;;;;;;5.40;57.46;100792.28;6199068;23;20075;-90
2023/02/16 08:34:41;;;;;;;28.05;15.85;;;;;;;5.34;56.68;100761.03;6172157;23;20004;-90
2023/02/16 08:37:08;;;;;;;31.23;15.38;;;;;;;5.53;56.47;100788.81;6173941;23;19995;-92
2023/02/16 08:39:34;;;;;;;30.00;13.93;;;;;;;5.71;55.97;100782.91;6201601;23;19980;-91
2023/02/16 08:42:00;;;;;;;26.05;15.57;;;;;;;5.99;54.73;100793.50;6171911;23;20007;-92
2023/02/16 08:44:26;;;;;;;31.05;15.25;;;;;;;5.98;54.78;100770.47;6172163;23;20366;-91
2023/02/16 08:46:53;;;;;;;28.63;14.98;;;;;;;6.00;54.76;100766.56;6171345;23;20015;-91
2023/02/16 08:49:20;;;;;;;27.67;17.02;;;;;;;6.01;54.88;100752.16;6196472;23;20004;-92
2023/02/16 08:51:51;;;;;;;32.20;18.10;;;;;;;6.23;54.78;100757.31;6196178;23;20058;-91
2023/02/16 08:54:23;;;;;;;45.78;19.17;;;;;;;6.47;55.73;100774.59;6196639;23;20000;-95
2023/02/16 08:56:49;;;;;;;29.67;17.33;;;;;;;6.59;54.66;100753.38;6196741;23;19996;-93
2023/02/16 08:59:16;;;;;;;26.17;15.63;;;;;;;6.79;54.25;100761.41;6199303;23;19992;-92
2023/02/16 09:01:41;;;;;;;33.25;19.38;;;;;;;6.97;53.88;100766.06;6196182;23;20004;-95
2023/02/16 09:04:07;;;;;;;24.83;15.40;;;;;;;7.06;53.11;100746.09;6195611;23;20004;-91
2023/02/16 09:06:36;;;;;;;28.45;16.60;;;;;;;7.25;52.91;100779.19;6249010;23;20023;-93
2023/02/16 09:09:03;;;;;;;25.02;14.55;;;;;;;7.27;52.63;100756.50;6210451;23;20004;-94
2023/02/16 09:14:06;;;;;;;26.50;14.07;;;;;;;7.23;51.81;100727.69;6265118;22;20086;-95
2023/02/16 09:17:04;;;;;;;25.05;13.43;;;;;;;7.39;52.23;100743.25;6188756;22;19999;-95
2023/02/16 09:19:57;;;;;;;34.72;20.60;;;;;;;7.62;52.70;100756.13;6255323;22;20011;-96
2023/02/16 09:22:23;;;;;;;25.80;14.80;;;;;;;7.77;51.29;100766.56;6265017;22;19995;-95
2023/02/16 09:24:50;;;;;;;42.50;23.27;;;;;;;7.82;52.12;100768.59;6235876;22;20007;-93
2023/02/16 09:27:17;;;;;;;25.23;15.10;;;;;;;7.75;51.42;100730.28;6234917;22;20453;-92
2023/02/16 09:29:43;;;;;;;29.02;15.70;;;;;;;7.95;51.09;100743.53;6205790;22;19996;-94
2023/02/16 09:32:09;;;;;;;30.27;16.55;;;;;;;7.93;51.19;100721.47;6211522;22;20006;-93
2023/02/16 09:34:38;;;;;;;26.83;14.73;;;;;;;7.98;51.01;100724.34;6212066;22;20378;-95
2023/02/16 09:37:04;;;;;;;23.13;12.70;;;;;;;8.05;51.04;100712.53;6210116;22;20000;-95
2023/02/16 09:39:40;;;;;;;25.58;14.38;;;;;;;8.19;50.47;100713.22;6212454;22;20022;-96
2023/02/16 09:42:38;;;;;;;50.08;35.10;;;;;;;8.46;50.89;100742.56;6221589;22;20109;-93
2023/02/16 09:45:08;;;;;;;82.72;49.60;;;;;;;8.37;51.18;100706.28;6269642;22;20004;-93
2023/02/16 09:52:50;;;;;;;21.25;12.80;;;;;;;8.85;49.68;100733.28;6265866;22;20080;-92
2023/02/16 09:55:17;;;;;;;26.80;13.68;;;;;;;8.77;50.39;100703.22;6207906;23;20003;-96
2023/02/16 09:57:57;;;;;;;27.38;15.60;;;;;;;8.93;49.72;100707.19;6184367;23;20019;-95
2023/02/16 10:00:34;;;;;;;24.02;12.05;;;;;;;9.04;48.80;100725.22;6215854;22;20074;-92
2023/02/16 10:03:13;;;;;;;25.65;10.82;;;;;;;8.93;48.40;100699.13;6258765;23;20018;-96
2023/02/16 10:05:46;;;;;;;79.15;17.15;;;;;;;9.20;48.34;100710.34;6204900;23;20036;-93
2023/02/16 10:08:15;;;;;;;22.17;12.52;;;;;;;9.24;48.19;100698.13;6206851;23;20015;-94
2023/02/16 10:11:05;;;;;;;16.15;10.82;;;;;;;9.43;47.38;100706.94;6211927;23;20000;-95
2023/02/16 10:13:51;;;;;;;;;;;;;;;;;;;;;
2023/02/16 10:16:27;;;;;;;17.60;10.50;;;;;;;9.58;45.84;100676.97;6209897;23;20028;-96
2023/02/16 10:18:55;;;;;;;15.55;9.35;;;;;;;9.48;45.45;100675.66;6185075;23;20011;-95
2023/02/16 10:21:26;;;;;;;18.67;10.00;;;;;;;9.59;45.75;100665.97;6186029;23;19996;-95
2023/02/16 10:23:59;;;;;;;15.05;9.98;;;;;;;9.78;44.89;100676.66;6183014;23;20011;-94
2023/02/16 10:26:30;;;;;;;18.90;10.85;;;;;;;9.79;44.35;100664.84;6183588;23;20033;-95
2023/02/16 10:29:02;;;;;;;30.10;15.73;;;;;;;9.80;44.23;100670.00;6205611;23;19996;-94
2023/02/16 10:31:59;;;;;;;18.48;10.18;;;;;;;9.96;43.27;100659.59;6180061;23;19996;-94
2023/02/16 10:34:48;;;;;;;18.00;10.73;;;;;;;10.12;43.44;100678.56;6198035;23;20079;-95
2023/02/16 10:37:41;;;;;;;28.92;14.23;;;;;;;10.14;43.68;100670.25;6223259;23;20072;-96
2023/02/16 10:40:35;;;;;;;23.25;12.18;;;;;;;10.17;43.67;100642.91;6180167;23;20376;-95
2023/02/16 10:43:45;;;;;;;16.45;9.75;;;;;;;10.38;42.65;100668.44;6177858;23;20005;-95
2023/02/16 10:46:14;;;;;;;29.63;13.85;;;;;;;10.21;42.91;100635.16;6201835;23;20011;-93
2023/02/16 10:48:39;;;;;;;23.67;11.00;;;;;;;10.40;42.75;100650.16;6168720;23;20335;-89
2023/02/16 10:51:16;;;;;;;21.33;10.30;;;;;;;10.20;42.75;100620.88;6187865;23;20004;-88
2023/02/16 10:54:08;;;;;;;16.02;8.85;;;;;;;10.59;41.84;100655.41;6138976;23;20053;-89
2023/02/16 10:56:59;;;;;;;21.60;9.75;;;;;;;10.62;42.30;100649.53;6186388;23;20015;-88
2023/02/16 10:59:51;;;;;;;24.65;11.80;;;;;;;10.64;42.09;100625.88;6161361;23;20000;-89
2023/02/16 11:02:25;;;;;;;25.15;11.90;;;;;;;10.75;41.68;100624.22;6163724;23;20443;-92
2023/02/16 11:04:55;;;;;;;20.92;12.38;;;;;;;10.87;41.57;100639.31;6148895;23;20350;-88
2023/02/16 11:07:22;;;;;;;24.95;10.93;;;;;;;10.71;41.95;100611.22;6194235;23;20000;-88
2023/02/16 11:10:07;;;;;;;20.52;11.18;;;;;;;10.82;41.64;100627.59;6171376;23;20411;-87
2023/02/16 11:12:37;;;;;;;18.77;9.20;;;;;;;10.79;40.90;100604.66;6170066;23;20042;-88
2023/02/16 11:15:23;;;;;;;19.00;10.05;;;;;;;10.87;40.56;100596.19;6195027;23;20003;-90
2023/02/16 11:18:04;;;;;;;16.55;10.10;;;;;;;11.01;40.59;100614.75;6218715;23;20000;-87
2023/02/16 11:23:39;;;;;;;15.20;9.43;;;;;;;11.17;40.22;100607.78;6241958;23;20038;-90
2023/02/16 11:26:08;;;;;;;18.60;10.27;;;;;;;11.31;40.20;100609.13;6220056;23;20000;-91
2023/02/16 11:28:35;;;;;;;19.73;10.95;;;;;;;11.26;40.68;100590.94;6215359;23;19997;-90
2023/02/16 11:31:26;;;;;;;19.05;10.80;;;;;;;10.99;40.40;100566.47;6167730;23;20018;-89
2023/02/16 11:34:04;;;;;;;25.42;10.90;;;;;;;11.24;39.89;100595.78;6173958;23;20320;-90
2023/02/16 11:36:41;;;;;;;21.67;10.70;;;;;;;10.92;41.74;100560.44;6222496;23;20026;-91
2023/02/16 11:39:13;;;;;;;24.63;12.95;;;;;;;11.33;41.60;100598.91;6224398;23;20095;-88
2023/02/16 11:41:51;;;;;;;;;;;;;;;11.29;41.39;100593.19;6251728;23;20315;-92
2023/02/16 11:44:29;;;;;;;18.23;12.02;;;;;;;11.28;40.30;100593.41;6200478;23;19914;-89
2023/02/16 11:47:03;;;;;;;16.30;11.00;;;;;;;11.16;40.61;100560.31;6250032;23;20024;-90
2023/02/16 11:49:35;;;;;;;16.05;10.20;;;;;;;11.02;40.29;100539.06;6199922;23;20004;-88
2023/02/16 11:52:21;;;;;;;18.40;11.70;;;;;;;11.29;40.99;100576.19;6175172;23;19997;-89
2023/02/16 11:54:59;;;;;;;24.55;12.57;;;;;;;11.30;41.07;100550.84;6218913;23;20008;-90
2023/02/16 11:57:39;;;;;;;39.08;19.45;;;;;;;11.15;41.56;100524.44;6157954;23;20035;-96
2023/02/16 12:00:48;;;;;;;25.88;14.07;;;;;;;11.29;42.33;100558.13;6213704;23;19997;-94
2023/02/16 12:06:15;;;;;;;21.17;11.77;;;;;;;11.22;41.21;100522.41;6199182;22;20003;-93
2023/02/16 12:08:48;;;;;;;21.50;12.73;;;;;;;11.47;41.89;100540.88;6230558;22;20010;-90
2023/02/16 12:11:28;;;;;;;25.77;11.88;;;;;;;11.60;41.25;100539.75;6231552;22;19996;-92
2023/02/16 12:14:17;;;;;;;20.88;12.48;;;;;;;11.52;41.05;100527.47;6257212;22;20000;-94
2023/02/16 12:17:07;;;;;;;17.95;10.98;;;;;;;11.57;40.53;100528.63;6233599;22;20429;-94
2023/02/16 12:20:14;;;;;;;16.13;10.82;;;;;;;11.43;40.58;100490.38;6261321;22;20057;-92
2023/02/16 12:22:55;;;;;;;16.08;10.20;;;;;;;11.44;40.32;100490.13;6259188;22;20011;-94
2023/02/16 12:25:37;;;;;;;17.17;11.30;;;;;;;11.69;40.56;100516.66;6231921;22;20004;-90
2023/02/16 12:28:49;;;;;;;15.68;10.48;;;;;;;11.70;40.52;100518.31;6232346;22;20011;-95
2023/02/16 12:31:27;;;;;;;20.25;11.98;;;;;;;11.57;41.27;100520.53;6229307;22;20002;-95
2023/02/16 12:34:14;;;;;;;22.75;11.15;;;;;;;11.61;40.90;100516.28;6261900;22;20010;-96
2023/02/16 12:36:42;;;;;;;18.45;10.98;;;;;;;11.64;40.54;100497.72;6278896;22;20000;-89
2023/02/16 12:39:46;;;;;;;16.08;10.02;;;;;;;11.63;40.20;100490.69;6251593;22;19999;-91
2023/02/16 12:42:18;;;;;;;17.83;11.10;;;;;;;11.66;40.15;100487.50;6251549;22;20014;-90
2023/02/16 12:45:01;;;;;;;19.33;10.85;;;;;;;11.73;40.86;100487.31;6229945;22;20058;-95
2023/02/16 12:47:40;;;;;;;19.10;11.30;;;;;;;11.69;40.04;100478.91;6203668;22;20003;-92
2023/02/16 12:50:20;;;;;;;17.92;10.75;;;;;;;11.72;40.17;100482.97;6229833;22;19996;-94
2023/02/16 12:53:09;;;;;;;17.30;10.80;;;;;;;11.63;39.67;100452.91;6205593;22;19995;-90
2023/02/16 12:55:43;;;;;;;27.42;14.93;;;;;;;11.73;39.44;100457.66;6225685;22;20023;-92
2023/02/16 12:58:15;;;;;;;19.20;10.43;;;;;;;11.85;39.29;100492.59;6227223;22;20074;-92